sensor_id;sensor_type;location;lat;lon;timestamp;P1;durP1;ratioP1;P2;durP2;ratioP2
84303;SDS011;74469;52.520;16.998;2024-01-16T00:03:30;3.50;;;0.90;;
84303;SDS011;74469;52.520;16.998;2024-01-16T00:08:33;2.20;;;0.90;;
84303;SDS011;74469;52.520;16.998;2024-01-16T00:13:35;3.10;;;0.80;;
84303;SDS011;74469;52.520;16.998;2024-01-16T00:18:44;0.90;;;0.50;;
84303;SDS011;74469;52.520;16.998;2024-01-16T00:23:49;2.20;;;0.90;;
84303;SDS011;74469;52.520;16.998;2024-01-16T00:29:12;1.00;;;0.50;;
84303;SDS011;74469;52.520;16.998;2024-01-16T00:34:15;0.80;;;0.50;;
84303;SDS011;74469;52.520;16.998;2024-01-16T00:39:18;1.00;;;0.50;;
84303;SDS011;74469;52.520;16.998;2024-01-16T00:44:21;1.40;;;0.70;;
84303;SDS011;74469;52.520;16.998;2024-01-16T00:49:23;3.20;;;1.10;;
84303;SDS011;74469;52.520;16.998;2024-01-16T00:54:37;2.80;;;1.20;;
84303;SDS011;74469;52.520;16.998;2024-01-16T00:59:58;0.80;;;0.40;;
84303;SDS011;74469;52.520;16.998;2024-01-16T01:05:10;1.00;;;0.50;;
84303;SDS011;74469;52.520;16.998;2024-01-16T01:10:39;2.20;;;0.50;;
84303;SDS011;74469;52.520;16.998;2024-01-16T01:15:48;2.00;;;0.60;;
84303;SDS011;74469;52.520;16.998;2024-01-16T01:20:51;0.70;;;0.40;;
84303;SDS011;74469;52.520;16.998;2024-01-16T01:26:14;1.70;;;0.90;;
84303;SDS011;74469;52.520;16.998;2024-01-16T01:31:25;3.20;;;1.20;;
84303;SDS011;74469;52.520;16.998;2024-01-16T01:42:16;0.80;;;0.50;;
84303;SDS011;74469;52.520;16.998;2024-01-16T01:47:32;0.90;;;0.50;;
84303;SDS011;74469;52.520;16.998;2024-01-16T01:52:58;3.00;;;0.50;;
84303;SDS011;74469;52.520;16.998;2024-01-16T01:58:03;2.50;;;0.60;;
84303;SDS011;74469;52.520;16.998;2024-01-16T02:03:20;1.80;;;0.60;;
84303;SDS011;74469;52.520;16.998;2024-01-16T02:08:24;1.20;;;0.40;;
84303;SDS011;74469;52.520;16.998;2024-01-16T02:13:27;2.20;;;0.70;;
84303;SDS011;74469;52.520;16.998;2024-01-16T02:18:30;1.50;;;0.70;;
84303;SDS011;74469;52.520;16.998;2024-01-16T02:23:33;0.30;;;0.30;;
84303;SDS011;74469;52.520;16.998;2024-01-16T02:28:39;2.50;;;0.40;;
84303;SDS011;74469;52.520;16.998;2024-01-16T02:33:42;1.00;;;0.70;;
84303;SDS011;74469;52.520;16.998;2024-01-16T02:38:45;0.90;;;0.30;;
84303;SDS011;74469;52.520;16.998;2024-01-16T02:43:48;2.90;;;0.80;;
84303;SDS011;74469;52.520;16.998;2024-01-16T02:48:51;1.30;;;0.80;;
84303;SDS011;74469;52.520;16.998;2024-01-16T02:53:53;1.50;;;0.50;;
84303;SDS011;74469;52.520;16.998;2024-01-16T02:58:56;0.20;;;0.20;;
84303;SDS011;74469;52.520;16.998;2024-01-16T03:03:59;0.50;;;0.40;;
84303;SDS011;74469;52.520;16.998;2024-01-16T03:09:02;1.60;;;0.50;;
84303;SDS011;74469;52.520;16.998;2024-01-16T03:14:17;4.70;;;0.70;;
84303;SDS011;74469;52.520;16.998;2024-01-16T03:19:29;0.70;;;0.60;;
84303;SDS011;74469;52.520;16.998;2024-01-16T03:24:32;0.70;;;0.50;;
84303;SDS011;74469;52.520;16.998;2024-01-16T03:29:52;0.30;;;0.30;;
84303;SDS011;74469;52.520;16.998;2024-01-16T03:35:10;0.30;;;0.30;;
84303;SDS011;74469;52.520;16.998;2024-01-16T03:40:14;1.00;;;0.70;;
84303;SDS011;74469;52.520;16.998;2024-01-16T03:45:26;1.90;;;0.70;;
84303;SDS011;74469;52.520;16.998;2024-01-16T03:50:32;0.70;;;0.60;;
84303;SDS011;74469;52.520;16.998;2024-01-16T03:55:36;0.70;;;0.40;;
84303;SDS011;74469;52.520;16.998;2024-01-16T04:00:39;1.00;;;0.50;;
84303;SDS011;74469;52.520;16.998;2024-01-16T04:06:01;3.20;;;0.80;;
84303;SDS011;74469;52.520;16.998;2024-01-16T04:11:26;2.20;;;1.00;;
84303;SDS011;74469;52.520;16.998;2024-01-16T04:22:41;2.00;;;1.10;;
84303;SDS011;74469;52.520;16.998;2024-01-16T04:28:11;4.20;;;0.80;;
84303;SDS011;74469;52.520;16.998;2024-01-16T04:39:26;1.10;;;0.70;;
84303;SDS011;74469;52.520;16.998;2024-01-16T04:44:29;1.70;;;1.10;;
84303;SDS011;74469;52.520;16.998;2024-01-16T04:49:31;2.60;;;1.30;;
84303;SDS011;74469;52.520;16.998;2024-01-16T04:54:34;0.80;;;0.40;;
84303;SDS011;74469;52.520;16.998;2024-01-16T04:59:37;0.60;;;0.20;;
84303;SDS011;74469;52.520;16.998;2024-01-16T05:04:39;0.70;;;0.60;;
84303;SDS011;74469;52.520;16.998;2024-01-16T05:09:43;9.30;;;3.10;;
84303;SDS011;74469;52.520;16.998;2024-01-16T05:14:46;4.10;;;1.90;;
84303;SDS011;74469;52.520;16.998;2024-01-16T05:20:06;1.60;;;0.80;;
84303;SDS011;74469;52.520;16.998;2024-01-16T05:25:33;2.10;;;1.00;;
84303;SDS011;74469;52.520;16.998;2024-01-16T05:30:55;1.20;;;0.80;;
84303;SDS011;74469;52.520;16.998;2024-01-16T05:36:09;1.60;;;1.00;;
84303;SDS011;74469;52.520;16.998;2024-01-16T05:52:31;1.50;;;1.40;;
84303;SDS011;74469;52.520;16.998;2024-01-16T05:57:34;4.40;;;2.80;;
84303;SDS011;74469;52.520;16.998;2024-01-16T06:02:49;5.80;;;3.00;;
84303;SDS011;74469;52.520;16.998;2024-01-16T06:07:59;5.30;;;2.40;;
84303;SDS011;74469;52.520;16.998;2024-01-16T06:13:02;5.00;;;1.60;;
84303;SDS011;74469;52.520;16.998;2024-01-16T06:18:23;2.10;;;1.50;;
84303;SDS011;74469;52.520;16.998;2024-01-16T06:28:59;0.70;;;0.70;;
84303;SDS011;74469;52.520;16.998;2024-01-16T06:39:51;3.50;;;1.50;;
84303;SDS011;74469;52.520;16.998;2024-01-16T06:44:53;3.60;;;1.60;;
84303;SDS011;74469;52.520;16.998;2024-01-16T06:49:56;3.90;;;1.40;;
84303;SDS011;74469;52.520;16.998;2024-01-16T07:00:42;4.00;;;1.80;;
84303;SDS011;74469;52.520;16.998;2024-01-16T07:05:54;1.60;;;1.50;;
84303;SDS011;74469;52.520;16.998;2024-01-16T07:10:57;6.50;;;2.00;;
84303;SDS011;74469;52.520;16.998;2024-01-16T07:16:00;5.40;;;2.00;;
84303;SDS011;74469;52.520;16.998;2024-01-16T07:50:38;2.50;;;1.60;;
84303;SDS011;74469;52.520;16.998;2024-01-16T07:55:41;6.00;;;3.20;;
84303;SDS011;74469;52.520;16.998;2024-01-16T08:00:45;6.30;;;2.80;;
84303;SDS011;74469;52.520;16.998;2024-01-16T08:05:47;7.70;;;2.00;;
84303;SDS011;74469;52.520;16.998;2024-01-16T08:10:50;8.70;;;2.70;;
84303;SDS011;74469;52.520;16.998;2024-01-16T08:15:53;6.00;;;2.50;;
84303;SDS011;74469;52.520;16.998;2024-01-16T08:21:05;12.10;;;3.80;;
84303;SDS011;74469;52.520;16.998;2024-01-16T08:26:28;8.60;;;3.40;;
84303;SDS011;74469;52.520;16.998;2024-01-16T08:32:05;9.20;;;3.50;;
84303;SDS011;74469;52.520;16.998;2024-01-16T08:37:23;10.90;;;3.80;;
84303;SDS011;74469;52.520;16.998;2024-01-16T08:42:36;11.60;;;4.90;;
84303;SDS011;74469;52.520;16.998;2024-01-16T08:48:02;15.40;;;4.50;;
84303;SDS011;74469;52.520;16.998;2024-01-16T08:53:05;6.40;;;3.20;;
84303;SDS011;74469;52.520;16.998;2024-01-16T08:58:09;9.50;;;3.60;;
84303;SDS011;74469;52.520;16.998;2024-01-16T09:08:44;14.60;;;4.30;;
84303;SDS011;74469;52.520;16.998;2024-01-16T09:13:54;12.70;;;5.00;;
84303;SDS011;74469;52.520;16.998;2024-01-16T09:18:57;11.80;;;5.20;;
84303;SDS011;74469;52.520;16.998;2024-01-16T09:23:59;4.20;;;2.50;;
84303;SDS011;74469;52.520;16.998;2024-01-16T09:29:02;4.10;;;2.00;;
84303;SDS011;74469;52.520;16.998;2024-01-16T09:34:05;4.90;;;1.90;;
84303;SDS011;74469;52.520;16.998;2024-01-16T09:39:16;5.80;;;1.90;;
84303;SDS011;74469;52.520;16.998;2024-01-16T09:44:19;5.00;;;2.50;;
84303;SDS011;74469;52.520;16.998;2024-01-16T09:49:40;3.80;;;1.50;;
84303;SDS011;74469;52.520;16.998;2024-01-16T09:55:04;2.70;;;1.10;;
84303;SDS011;74469;52.520;16.998;2024-01-16T10:05:51;5.20;;;2.00;;
84303;SDS011;74469;52.520;16.998;2024-01-16T10:10:53;3.10;;;1.00;;
84303;SDS011;74469;52.520;16.998;2024-01-16T10:15:56;1.00;;;1.00;;
84303;SDS011;74469;52.520;16.998;2024-01-16T10:20:59;1.50;;;1.00;;
84303;SDS011;74469;52.520;16.998;2024-01-16T10:26:06;1.20;;;0.90;;
84303;SDS011;74469;52.520;16.998;2024-01-16T10:31:10;2.50;;;1.50;;
84303;SDS011;74469;52.520;16.998;2024-01-16T10:36:14;3.00;;;1.30;;
84303;SDS011;74469;52.520;16.998;2024-01-16T10:41:23;4.00;;;0.90;;
84303;SDS011;74469;52.520;16.998;2024-01-16T10:46:29;8.40;;;2.80;;
84303;SDS011;74469;52.520;16.998;2024-01-16T10:51:31;2.20;;;1.10;;
84303;SDS011;74469;52.520;16.998;2024-01-16T10:56:34;3.90;;;1.70;;
84303;SDS011;74469;52.520;16.998;2024-01-16T11:01:38;7.30;;;1.30;;
84303;SDS011;74469;52.520;16.998;2024-01-16T11:06:42;3.30;;;1.50;;
84303;SDS011;74469;52.520;16.998;2024-01-16T11:11:45;3.80;;;1.80;;
84303;SDS011;74469;52.520;16.998;2024-01-16T11:16:48;2.90;;;1.00;;
84303;SDS011;74469;52.520;16.998;2024-01-16T11:21:52;2.90;;;0.70;;
84303;SDS011;74469;52.520;16.998;2024-01-16T11:26:54;1.10;;;0.90;;
84303;SDS011;74469;52.520;16.998;2024-01-16T11:31:57;1.90;;;0.90;;
84303;SDS011;74469;52.520;16.998;2024-01-16T11:37:02;2.00;;;0.90;;
84303;SDS011;74469;52.520;16.998;2024-01-16T11:42:08;1.10;;;0.70;;
84303;SDS011;74469;52.520;16.998;2024-01-16T11:47:17;2.60;;;1.00;;
84303;SDS011;74469;52.520;16.998;2024-01-16T11:52:39;2.90;;;1.20;;
84303;SDS011;74469;52.520;16.998;2024-01-16T11:57:47;2.70;;;1.10;;
84303;SDS011;74469;52.520;16.998;2024-01-16T12:03:03;6.80;;;0.90;;
84303;SDS011;74469;52.520;16.998;2024-01-16T12:08:06;2.40;;;1.20;;
84303;SDS011;74469;52.520;16.998;2024-01-16T12:13:09;1.20;;;0.80;;
84303;SDS011;74469;52.520;16.998;2024-01-16T12:18:18;2.60;;;0.80;;
84303;SDS011;74469;52.520;16.998;2024-01-16T12:23:24;4.50;;;1.50;;
84303;SDS011;74469;52.520;16.998;2024-01-16T12:28:32;1.00;;;0.90;;
84303;SDS011;74469;52.520;16.998;2024-01-16T12:33:43;7.40;;;3.30;;
84303;SDS011;74469;52.520;16.998;2024-01-16T12:38:53;5.40;;;2.60;;
84303;SDS011;74469;52.520;16.998;2024-01-16T12:44:00;5.10;;;2.50;;
84303;SDS011;74469;52.520;16.998;2024-01-16T12:49:02;2.20;;;1.60;;
84303;SDS011;74469;52.520;16.998;2024-01-16T12:54:10;3.80;;;2.50;;
84303;SDS011;74469;52.520;16.998;2024-01-16T12:59:44;4.50;;;2.20;;
84303;SDS011;74469;52.520;16.998;2024-01-16T13:04:47;4.20;;;1.40;;
84303;SDS011;74469;52.520;16.998;2024-01-16T13:10:08;3.50;;;1.90;;
84303;SDS011;74469;52.520;16.998;2024-01-16T13:15:33;2.80;;;2.10;;
84303;SDS011;74469;52.520;16.998;2024-01-16T13:20:36;1.60;;;1.50;;
84303;SDS011;74469;52.520;16.998;2024-01-16T13:25:39;4.70;;;2.30;;
84303;SDS011;74469;52.520;16.998;2024-01-16T13:30:42;3.90;;;2.20;;
84303;SDS011;74469;52.520;16.998;2024-01-16T13:35:58;3.70;;;2.40;;
84303;SDS011;74469;52.520;16.998;2024-01-16T13:41:03;6.50;;;2.60;;
84303;SDS011;74469;52.520;16.998;2024-01-16T13:46:06;6.50;;;2.50;;
84303;SDS011;74469;52.520;16.998;2024-01-16T13:51:27;7.90;;;2.10;;
84303;SDS011;74469;52.520;16.998;2024-01-16T13:56:30;4.30;;;2.10;;
84303;SDS011;74469;52.520;16.998;2024-01-16T14:01:33;4.30;;;2.20;;
84303;SDS011;74469;52.520;16.998;2024-01-16T14:06:35;10.70;;;3.60;;
84303;SDS011;74469;52.520;16.998;2024-01-16T14:11:38;11.00;;;3.90;;
84303;SDS011;74469;52.520;16.998;2024-01-16T14:16:41;6.30;;;4.10;;
84303;SDS011;74469;52.520;16.998;2024-01-16T14:21:51;5.20;;;2.70;;
84303;SDS011;74469;52.520;16.998;2024-01-16T14:27:02;4.60;;;2.10;;
84303;SDS011;74469;52.520;16.998;2024-01-16T14:32:06;7.20;;;3.20;;
84303;SDS011;74469;52.520;16.998;2024-01-16T14:37:17;6.60;;;3.30;;
84303;SDS011;74469;52.520;16.998;2024-01-16T14:42:22;11.80;;;4.40;;
84303;SDS011;74469;52.520;16.998;2024-01-16T14:47:25;7.10;;;3.30;;
84303;SDS011;74469;52.520;16.998;2024-01-16T14:52:28;6.60;;;2.80;;
84303;SDS011;74469;52.520;16.998;2024-01-16T14:57:31;5.90;;;2.50;;
84303;SDS011;74469;52.520;16.998;2024-01-16T15:02:33;8.80;;;3.50;;
84303;SDS011;74469;52.520;16.998;2024-01-16T15:07:36;6.50;;;2.50;;
84303;SDS011;74469;52.520;16.998;2024-01-16T15:12:40;8.20;;;3.20;;
84303;SDS011;74469;52.520;16.998;2024-01-16T15:17:43;9.70;;;2.20;;
84303;SDS011;74469;52.520;16.998;2024-01-16T15:22:46;3.50;;;2.10;;
84303;SDS011;74469;52.520;16.998;2024-01-16T15:27:51;8.60;;;3.70;;
84303;SDS011;74469;52.520;16.998;2024-01-16T15:32:57;8.20;;;4.10;;
84303;SDS011;74469;52.520;16.998;2024-01-16T15:38:00;6.50;;;3.10;;
84303;SDS011;74469;52.520;16.998;2024-01-16T15:43:05;7.00;;;3.70;;
84303;SDS011;74469;52.520;16.998;2024-01-16T15:48:07;11.30;;;4.20;;
84303;SDS011;74469;52.520;16.998;2024-01-16T15:53:10;9.30;;;4.20;;
84303;SDS011;74469;52.520;16.998;2024-01-16T15:58:14;20.40;;;7.10;;
84303;SDS011;74469;52.520;16.998;2024-01-16T16:03:16;25.40;;;8.10;;
84303;SDS011;74469;52.520;16.998;2024-01-16T16:08:20;24.00;;;8.20;;
84303;SDS011;74469;52.520;16.998;2024-01-16T16:13:23;36.70;;;12.80;;
84303;SDS011;74469;52.520;16.998;2024-01-16T16:18:26;14.60;;;6.80;;
84303;SDS011;74469;52.520;16.998;2024-01-16T16:35:14;12.60;;;6.20;;
84303;SDS011;74469;52.520;16.998;2024-01-16T16:40:34;5.90;;;3.90;;
84303;SDS011;74469;52.520;16.998;2024-01-16T16:46:16;13.40;;;5.50;;
84303;SDS011;74469;52.520;16.998;2024-01-16T16:51:30;7.30;;;3.80;;
84303;SDS011;74469;52.520;16.998;2024-01-16T16:56:34;8.50;;;5.50;;
84303;SDS011;74469;52.520;16.998;2024-01-16T17:01:36;7.40;;;4.00;;
84303;SDS011;74469;52.520;16.998;2024-01-16T17:06:40;23.50;;;9.70;;
84303;SDS011;74469;52.520;16.998;2024-01-16T17:11:43;23.00;;;8.60;;
84303;SDS011;74469;52.520;16.998;2024-01-16T17:16:51;36.10;;;11.70;;
84303;SDS011;74469;52.520;16.998;2024-01-16T17:21:54;34.20;;;11.10;;
84303;SDS011;74469;52.520;16.998;2024-01-16T17:27:13;24.00;;;9.60;;
84303;SDS011;74469;52.520;16.998;2024-01-16T17:32:16;30.50;;;10.10;;
84303;SDS011;74469;52.520;16.998;2024-01-16T17:37:39;25.40;;;8.90;;
84303;SDS011;74469;52.520;16.998;2024-01-16T17:42:42;20.00;;;7.80;;
84303;SDS011;74469;52.520;16.998;2024-01-16T17:47:45;12.30;;;5.30;;
84303;SDS011;74469;52.520;16.998;2024-01-16T17:52:48;13.10;;;7.10;;
84303;SDS011;74469;52.520;16.998;2024-01-16T17:57:51;28.30;;;12.80;;
84303;SDS011;74469;52.520;16.998;2024-01-16T18:02:56;27.60;;;8.10;;
84303;SDS011;74469;52.520;16.998;2024-01-16T18:08:04;29.50;;;13.00;;
84303;SDS011;74469;52.520;16.998;2024-01-16T18:13:09;10.50;;;4.90;;
84303;SDS011;74469;52.520;16.998;2024-01-16T18:18:15;22.10;;;9.20;;
84303;SDS011;74469;52.520;16.998;2024-01-16T18:23:19;19.30;;;9.10;;
84303;SDS011;74469;52.520;16.998;2024-01-16T18:28:42;11.20;;;5.40;;
84303;SDS011;74469;52.520;16.998;2024-01-16T18:44:31;23.90;;;10.40;;
84303;SDS011;74469;52.520;16.998;2024-01-16T18:49:34;17.90;;;6.50;;
84303;SDS011;74469;52.520;16.998;2024-01-16T18:54:36;13.20;;;6.60;;
84303;SDS011;74469;52.520;16.998;2024-01-16T18:59:39;17.50;;;9.70;;
84303;SDS011;74469;52.520;16.998;2024-01-16T19:04:42;15.20;;;8.00;;
84303;SDS011;74469;52.520;16.998;2024-01-16T19:09:49;16.60;;;7.40;;
84303;SDS011;74469;52.520;16.998;2024-01-16T19:14:52;22.40;;;9.00;;
84303;SDS011;74469;52.520;16.998;2024-01-16T19:19:55;17.30;;;8.60;;
84303;SDS011;74469;52.520;16.998;2024-01-16T19:24:58;16.60;;;8.20;;
84303;SDS011;74469;52.520;16.998;2024-01-16T19:30:02;14.00;;;6.50;;
84303;SDS011;74469;52.520;16.998;2024-01-16T19:35:09;14.00;;;7.30;;
84303;SDS011;74469;52.520;16.998;2024-01-16T19:40:12;15.70;;;8.30;;
84303;SDS011;74469;52.520;16.998;2024-01-16T19:45:18;12.10;;;6.90;;
84303;SDS011;74469;52.520;16.998;2024-01-16T19:50:20;14.60;;;7.00;;
84303;SDS011;74469;52.520;16.998;2024-01-16T19:55:23;10.50;;;5.20;;
84303;SDS011;74469;52.520;16.998;2024-01-16T20:00:26;20.50;;;8.10;;
84303;SDS011;74469;52.520;16.998;2024-01-16T20:05:29;23.00;;;8.50;;
84303;SDS011;74469;52.520;16.998;2024-01-16T20:10:36;17.00;;;7.80;;
84303;SDS011;74469;52.520;16.998;2024-01-16T20:15:45;25.80;;;10.20;;
84303;SDS011;74469;52.520;16.998;2024-01-16T20:20:51;16.60;;;7.30;;
84303;SDS011;74469;52.520;16.998;2024-01-16T20:25:54;20.40;;;8.50;;
84303;SDS011;74469;52.520;16.998;2024-01-16T20:30:57;12.10;;;5.30;;
84303;SDS011;74469;52.520;16.998;2024-01-16T20:35:59;14.10;;;6.40;;
84303;SDS011;74469;52.520;16.998;2024-01-16T20:41:03;12.50;;;6.10;;
84303;SDS011;74469;52.520;16.998;2024-01-16T20:46:07;13.90;;;7.00;;
84303;SDS011;74469;52.520;16.998;2024-01-16T20:51:10;11.50;;;6.40;;
84303;SDS011;74469;52.520;16.998;2024-01-16T20:56:16;12.40;;;6.20;;
84303;SDS011;74469;52.520;16.998;2024-01-16T21:01:20;22.70;;;8.00;;
84303;SDS011;74469;52.520;16.998;2024-01-16T21:06:23;20.10;;;9.70;;
84303;SDS011;74469;52.520;16.998;2024-01-16T21:11:26;12.40;;;6.80;;
84303;SDS011;74469;52.520;16.998;2024-01-16T21:16:28;18.90;;;9.00;;
84303;SDS011;74469;52.520;16.998;2024-01-16T21:21:34;20.60;;;8.70;;
84303;SDS011;74469;52.520;16.998;2024-01-16T21:31:49;14.30;;;6.80;;
84303;SDS011;74469;52.520;16.998;2024-01-16T21:36:53;17.20;;;8.20;;
84303;SDS011;74469;52.520;16.998;2024-01-16T21:41:56;19.40;;;8.40;;
84303;SDS011;74469;52.520;16.998;2024-01-16T21:46:59;20.20;;;10.00;;
84303;SDS011;74469;52.520;16.998;2024-01-16T21:52:01;10.00;;;5.60;;
84303;SDS011;74469;52.520;16.998;2024-01-16T21:57:04;11.00;;;5.30;;
84303;SDS011;74469;52.520;16.998;2024-01-16T22:02:07;11.70;;;5.90;;
84303;SDS011;74469;52.520;16.998;2024-01-16T22:07:12;10.80;;;5.10;;
84303;SDS011;74469;52.520;16.998;2024-01-16T22:12:14;18.70;;;7.20;;
84303;SDS011;74469;52.520;16.998;2024-01-16T22:17:17;10.90;;;4.20;;
84303;SDS011;74469;52.520;16.998;2024-01-16T22:22:32;12.40;;;6.30;;
84303;SDS011;74469;52.520;16.998;2024-01-16T22:27:34;9.30;;;4.10;;
84303;SDS011;74469;52.520;16.998;2024-01-16T22:32:37;11.20;;;4.90;;
84303;SDS011;74469;52.520;16.998;2024-01-16T22:37:48;14.00;;;6.60;;
84303;SDS011;74469;52.520;16.998;2024-01-16T22:43:11;8.70;;;4.30;;
84303;SDS011;74469;52.520;16.998;2024-01-16T22:48:52;14.80;;;5.30;;
84303;SDS011;74469;52.520;16.998;2024-01-16T22:53:56;18.30;;;6.20;;
84303;SDS011;74469;52.520;16.998;2024-01-16T22:58:59;11.20;;;6.20;;
84303;SDS011;74469;52.520;16.998;2024-01-16T23:04:02;10.20;;;6.00;;
84303;SDS011;74469;52.520;16.998;2024-01-16T23:20:56;9.50;;;4.50;;
84303;SDS011;74469;52.520;16.998;2024-01-16T23:25:59;12.60;;;5.10;;
84303;SDS011;74469;52.520;16.998;2024-01-16T23:31:05;8.30;;;3.80;;
84303;SDS011;74469;52.520;16.998;2024-01-16T23:41:13;20.70;;;7.60;;
84303;SDS011;74469;52.520;16.998;2024-01-16T23:46:16;6.20;;;3.40;;
84303;SDS011;74469;52.520;16.998;2024-01-16T23:51:18;9.40;;;4.00;;
84303;SDS011;74469;52.520;16.998;2024-01-16T23:56:21;9.50;;;5.50;;
